createdAt,value
2018-10-02T00:01:41.679Z,102303.54
2018-10-02T00:04:10.085Z,102292.80
2018-10-02T00:06:38.516Z,102290.84
2018-10-02T00:09:09.175Z,102286.74
2018-10-02T00:11:42.993Z,102283.10
2018-10-02T00:14:16.602Z,102278.65
2018-10-02T00:16:45.201Z,102279.12
2018-10-02T00:19:13.661Z,102278.65
2018-10-02T00:21:42.149Z,102273.23
2018-10-02T00:24:10.849Z,102264.77
2018-10-02T00:26:39.493Z,102267.30
2018-10-02T00:29:07.986Z,102264.17
2018-10-02T00:31:36.705Z,102258.23
2018-10-02T00:34:05.126Z,102264.37
2018-10-02T00:36:33.596Z,102265.55
2018-10-02T00:39:02.038Z,102262.41
2018-10-02T00:41:30.537Z,102252.51
2018-10-02T00:43:59.053Z,102250.42
2018-10-02T00:46:27.489Z,102256.56
2018-10-02T00:48:55.928Z,102260.38
2018-10-02T00:51:24.637Z,102261.70
2018-10-02T00:53:53.121Z,102258.91
2018-10-02T00:56:21.602Z,102260.23
2018-10-02T00:58:50.186Z,102256.25
2018-10-02T01:01:18.689Z,102262.27
2018-10-02T01:03:47.257Z,102257.78
2018-10-02T01:06:16.176Z,102253.00
2018-10-02T01:08:44.625Z,102242.61
2018-10-02T01:11:13.046Z,102244.41
2018-10-02T01:13:42.013Z,102250.04
2018-10-02T01:16:10.481Z,102236.31
2018-10-02T01:18:38.947Z,102229.20
2018-10-02T01:21:07.367Z,102232.34
2018-10-02T01:23:35.845Z,102228.84
2018-10-02T01:26:04.366Z,102225.23
2018-10-02T01:28:32.872Z,102213.80
2018-10-02T01:31:01.398Z,102213.59
2018-10-02T01:33:29.917Z,102204.48
2018-10-02T01:35:58.337Z,102195.84
2018-10-02T01:38:26.749Z,102191.67
2018-10-02T01:40:55.243Z,102192.16
2018-10-02T01:43:23.705Z,102182.20
2018-10-02T01:45:52.142Z,102167.62
2018-10-02T01:48:20.632Z,102159.69
2018-10-02T01:50:49.066Z,102159.33
2018-10-02T01:53:17.618Z,102155.19
2018-10-02T01:55:46.193Z,102160.69
2018-10-02T01:58:14.695Z,102152.14
2018-10-02T02:00:43.259Z,102131.55
2018-10-02T02:03:11.693Z,102138.89
2018-10-02T02:05:40.203Z,102144.52
2018-10-02T02:08:08.718Z,102144.03
2018-10-02T02:10:37.215Z,102132.59
2018-10-02T02:13:05.716Z,102131.95
2018-10-02T02:15:34.130Z,102129.30
2018-10-02T02:18:02.945Z,102133.16
2018-10-02T02:20:31.402Z,102127.38
2018-10-02T02:22:59.897Z,102120.23
2018-10-02T02:25:28.391Z,102120.23
2018-10-02T02:27:56.847Z,102125.41
2018-10-02T02:30:25.305Z,102118.42
2018-10-02T02:32:53.842Z,102115.17
2018-10-02T02:35:22.903Z,102117.30
2018-10-02T02:37:51.359Z,102105.53
2018-10-02T02:40:19.821Z,102098.91
2018-10-02T02:42:48.361Z,102099.56
2018-10-02T02:45:16.825Z,102101.37
2018-10-02T02:47:51.121Z,102101.49
2018-10-02T02:50:24.756Z,102099.16
2018-10-02T02:52:57.158Z,102100.48
2018-10-02T02:55:27.654Z,102105.59
2018-10-02T02:57:56.153Z,102099.09
2018-10-02T03:00:24.860Z,102097.92
2018-10-02T03:02:53.343Z,102092.14
2018-10-02T03:05:23.783Z,102094.28
2018-10-02T03:07:52.341Z,102091.14
2018-10-02T03:10:20.891Z,102088.50
2018-10-02T03:12:49.413Z,102086.33
2018-10-02T03:15:17.884Z,102078.38
2018-10-02T03:17:46.298Z,102074.77
2018-10-02T03:20:14.746Z,102052.26
2018-10-02T03:22:43.260Z,102045.99
2018-10-02T03:25:11.962Z,102024.93
2018-10-02T03:27:40.423Z,102021.95
2018-10-02T03:30:08.928Z,102023.77
2018-10-02T03:32:37.377Z,102004.23
2018-10-02T03:35:06.021Z,101995.67
2018-10-02T03:37:34.432Z,101987.72
2018-10-02T03:40:03.086Z,101979.77
2018-10-02T04:16:46.892Z,101927.99
2018-10-02T04:19:15.634Z,101918.78
2018-10-02T04:21:44.130Z,101915.67
2018-10-02T04:24:13.111Z,101911.75
2018-10-02T04:26:41.585Z,101905.64
2018-10-02T04:29:10.018Z,101908.83
2018-10-02T04:31:38.931Z,101904.88
2018-10-02T04:34:07.584Z,101893.98
2018-10-02T04:36:36.067Z,101894.06
2018-10-02T04:39:06.273Z,101889.92
2018-10-02T04:41:34.771Z,101892.77
2018-10-02T04:44:03.253Z,101896.44
2018-10-02T04:46:31.808Z,101886.19
2018-10-02T04:49:00.280Z,101888.19
2018-10-02T04:51:28.776Z,101875.25
2018-10-02T04:53:57.270Z,101862.34
2018-10-02T04:56:25.802Z,101856.87
2018-10-02T04:58:54.307Z,101865.53
2018-10-02T05:01:22.861Z,101861.74
2018-10-02T05:03:51.368Z,101859.77
2018-10-02T05:06:19.965Z,101864.27
2018-10-02T05:08:48.510Z,101860.48
2018-10-02T05:11:17.120Z,101857.00
2018-10-02T05:13:45.610Z,101862.66
2018-10-02T05:16:14.123Z,101870.80
2018-10-02T05:18:42.598Z,101870.14
2018-10-02T05:21:11.083Z,101856.74
2018-10-02T05:23:39.687Z,101855.41
2018-10-02T05:26:08.158Z,101854.41
2018-10-02T05:28:36.769Z,101849.11
2018-10-02T05:31:05.290Z,101852.77
2018-10-02T05:33:33.780Z,101843.97
2018-10-02T05:36:02.292Z,101843.62
2018-10-02T05:38:31.142Z,101835.17
2018-10-02T05:40:59.595Z,101830.71
2018-10-02T05:43:28.184Z,101834.20
2018-10-02T05:45:57.407Z,101823.24
2018-10-02T05:48:27.038Z,101822.41
2018-10-02T05:50:55.607Z,101825.89
2018-10-02T05:53:25.341Z,101824.92
2018-10-02T05:55:53.889Z,101822.59
2018-10-02T05:58:22.481Z,101821.93
2018-10-02T06:00:51.182Z,101811.33
2018-10-02T06:03:19.765Z,101812.02
2018-10-02T06:05:48.364Z,101811.85
2018-10-02T06:08:17.611Z,101820.96
2018-10-02T06:10:46.062Z,101815.03
2018-10-02T06:13:14.850Z,101820.02
2018-10-02T06:15:43.382Z,101815.70
2018-10-02T06:18:11.879Z,101805.12
2018-10-02T06:20:40.475Z,101802.97
2018-10-02T06:23:08.970Z,101794.07
2018-10-02T06:25:37.474Z,101787.94
2018-10-02T06:28:06.001Z,101785.31
2018-10-02T06:30:34.535Z,101784.33
2018-10-02T06:33:03.019Z,101779.69
2018-10-02T06:35:31.711Z,101776.05
2018-10-02T06:38:00.358Z,101773.92
2018-10-02T06:40:29.092Z,101776.42
2018-10-02T06:42:57.614Z,101782.08
2018-10-02T06:45:26.161Z,101782.59
2018-10-02T06:47:54.665Z,101770.16
2018-10-02T06:50:23.206Z,101767.34
2018-10-02T06:52:51.741Z,101768.67
2018-10-02T06:55:20.523Z,101764.53
2018-10-02T06:57:49.022Z,101759.39
2018-10-02T07:00:17.684Z,101752.61
2018-10-02T07:02:46.226Z,101752.61
2018-10-02T07:05:14.806Z,101755.58
2018-10-02T07:07:43.372Z,101758.89
2018-10-02T07:10:12.285Z,101769.04
2018-10-02T07:12:40.833Z,101765.05
2018-10-02T07:15:10.606Z,101766.54
2018-10-02T07:17:39.170Z,101776.34
2018-10-02T07:20:07.593Z,101761.07
2018-10-02T07:22:36.094Z,101754.79
2018-10-02T07:25:04.694Z,101762.09
2018-10-02T07:27:33.273Z,101765.60
2018-10-02T07:30:01.923Z,101756.95
2018-10-02T07:32:30.917Z,101761.27
2018-10-02T07:34:59.656Z,101766.26
2018-10-02T07:37:28.175Z,101766.08
2018-10-02T07:39:56.765Z,101768.06
2018-10-02T07:42:25.405Z,101772.73
2018-10-02T07:44:54.035Z,101772.22
2018-10-02T07:47:22.648Z,101764.23
2018-10-02T07:49:51.782Z,101759.94
2018-10-02T07:52:21.528Z,101763.44
2018-10-02T07:54:51.497Z,101762.59
2018-10-02T07:57:20.152Z,101757.43
2018-10-02T07:59:56.823Z,101762.44
2018-10-02T08:02:25.414Z,101762.27
2018-10-02T08:04:53.857Z,101753.95
2018-10-02T08:07:29.575Z,101755.63
2018-10-02T08:09:58.477Z,101772.06
2018-10-02T08:12:27.275Z,101771.88
2018-10-02T08:14:56.264Z,101773.21
2018-10-02T08:17:25.243Z,101769.23
2018-10-02T08:19:53.880Z,101766.08
2018-10-02T08:22:22.434Z,101771.73
2018-10-02T08:24:50.924Z,101767.57
2018-10-02T08:27:19.501Z,101771.06
2018-10-02T08:29:48.047Z,101763.93
2018-10-02T08:32:17.157Z,101766.09
2018-10-02T08:34:45.744Z,101757.78
2018-10-02T08:37:14.226Z,101761.94
2018-10-02T08:39:42.758Z,101759.44
2018-10-02T08:42:11.589Z,101757.80
2018-10-02T08:44:40.208Z,101761.93
2018-10-02T08:47:09.572Z,101762.77
2018-10-02T08:49:38.112Z,101758.44
2018-10-02T08:52:06.783Z,101763.75
2018-10-02T08:54:35.295Z,101760.77
2018-10-02T08:57:03.761Z,101762.75
2018-10-02T08:59:32.263Z,101752.95
2018-10-02T09:02:00.751Z,101752.80
2018-10-02T09:04:29.286Z,101742.98
2018-10-02T09:06:58.321Z,101735.67
2018-10-02T09:09:26.880Z,101734.84
2018-10-02T09:11:55.365Z,101735.48
2018-10-02T09:14:24.149Z,101738.64
2018-10-02T09:16:52.723Z,101731.50
2018-10-02T09:19:21.990Z,101737.63
2018-10-02T09:21:51.262Z,101731.64
2018-10-02T09:24:19.794Z,101737.45
2018-10-02T09:26:48.281Z,101743.09
2018-10-02T09:29:16.782Z,101737.25
2018-10-02T09:31:50.394Z,101738.43
2018-10-02T09:34:24.336Z,101750.06
2018-10-02T09:36:58.063Z,101746.54
2018-10-02T09:39:31.658Z,101750.69
2018-10-02T09:42:05.302Z,101753.20
2018-10-02T09:44:35.540Z,101745.03
2018-10-02T09:47:04.792Z,101751.69
2018-10-02T09:49:33.344Z,101748.31
2018-10-02T09:52:01.890Z,101752.13
2018-10-02T09:54:30.460Z,101741.48
2018-10-02T09:56:59.049Z,101740.77
2018-10-02T09:59:27.533Z,101737.42
2018-10-02T10:02:01.512Z,101731.91
2018-10-02T10:04:29.973Z,101740.02
2018-10-02T10:06:58.489Z,101737.66
2018-10-02T10:09:27.073Z,101739.63
2018-10-02T10:11:55.584Z,101733.45
2018-10-02T10:14:24.707Z,101737.22
2018-10-02T10:16:53.284Z,101738.84
2018-10-02T10:19:22.259Z,101733.95
2018-10-02T10:21:51.047Z,101734.25
2018-10-02T10:24:19.591Z,101741.55
2018-10-02T10:26:48.493Z,101740.00
2018-10-02T10:29:17.233Z,101738.96
2018-10-02T10:31:45.707Z,101742.42
2018-10-02T10:34:15.478Z,101742.90
2018-10-02T10:36:43.990Z,101746.52
2018-10-02T10:39:12.494Z,101742.00
2018-10-02T10:41:41.677Z,101741.11
2018-10-02T10:44:10.187Z,101739.57
2018-10-02T10:46:38.741Z,101733.72
2018-10-02T10:49:08.435Z,101740.48
2018-10-02T10:51:36.959Z,101740.91
2018-10-02T10:54:06.942Z,101737.44
2018-10-02T10:56:36.044Z,101750.28
2018-10-02T10:59:05.965Z,101743.99
2018-10-02T11:01:34.552Z,101735.59
2018-10-02T11:04:04.477Z,101737.20
2018-10-02T11:06:33.916Z,101741.61
2018-10-02T11:09:02.490Z,101747.85
2018-10-02T11:11:30.949Z,101747.45
2018-10-02T11:13:59.545Z,101747.72
2018-10-02T11:16:28.728Z,101739.58
2018-10-02T11:18:57.419Z,101736.62
2018-10-02T11:21:25.923Z,101740.02
2018-10-02T11:23:54.384Z,101751.16
2018-10-02T11:26:24.187Z,101751.25
2018-10-02T11:28:52.799Z,101740.19
2018-10-02T11:31:22.635Z,101733.70
2018-10-02T11:33:51.415Z,101741.39
2018-10-02T11:36:20.102Z,101738.70
2018-10-02T11:38:49.924Z,101735.44
2018-10-02T11:41:18.546Z,101735.63
2018-10-02T11:43:47.231Z,101734.20
2018-10-02T11:46:15.638Z,101735.91
2018-10-02T11:48:44.242Z,101740.16
2018-10-02T11:51:13.376Z,101741.95
2018-10-02T11:53:42.165Z,101734.87
2018-10-02T11:56:10.793Z,101730.97
2018-10-02T11:58:39.277Z,101735.45
2018-10-02T12:01:08.344Z,101736.81
2018-10-02T12:03:36.781Z,101734.41
2018-10-02T12:06:06.388Z,101733.92
2018-10-02T12:08:35.221Z,101733.25
2018-10-02T12:11:04.173Z,101738.00
2018-10-02T12:13:32.848Z,101754.00
2018-10-02T12:16:01.331Z,101759.66
2018-10-02T12:18:29.939Z,101747.42
2018-10-02T12:20:58.564Z,101749.59
2018-10-02T12:23:27.099Z,101739.67
2018-10-02T12:25:55.940Z,101744.02
2018-10-02T12:28:24.482Z,101746.02
2018-10-02T12:30:53.032Z,101747.80
2018-10-02T12:33:21.838Z,101738.53
2018-10-02T12:35:50.452Z,101746.39
2018-10-02T12:38:19.059Z,101735.48
2018-10-02T12:40:47.551Z,101745.62
2018-10-02T12:43:16.056Z,101750.02
2018-10-02T12:45:44.653Z,101745.98
2018-10-02T12:48:13.690Z,101750.03
2018-10-02T12:50:42.308Z,101757.66
2018-10-02T12:53:10.933Z,101760.22
2018-10-02T12:55:39.411Z,101758.42
2018-10-02T12:58:07.911Z,101752.73
2018-10-02T13:00:37.371Z,101750.46
2018-10-02T13:03:06.023Z,101754.91
2018-10-02T13:05:34.660Z,101754.71
2018-10-02T13:08:03.798Z,101751.25
2018-10-02T13:10:32.406Z,101756.48
2018-10-02T13:13:01.267Z,101757.73
2018-10-02T13:15:30.611Z,101772.75
2018-10-02T13:17:59.341Z,101750.91
2018-10-02T13:20:27.979Z,101751.26
2018-10-02T13:22:56.756Z,101759.02
2018-10-02T13:25:25.458Z,101762.30
2018-10-02T13:27:53.877Z,101763.13
2018-10-02T13:30:22.408Z,101772.02
2018-10-02T13:32:51.024Z,101772.28
2018-10-02T13:35:19.630Z,101772.11
2018-10-02T13:37:48.485Z,101768.97
2018-10-02T13:40:18.407Z,101759.48
2018-10-02T13:42:50.643Z,101771.17
2018-10-02T13:45:19.290Z,101787.45
2018-10-02T13:47:48.835Z,101785.68
2018-10-02T13:50:17.816Z,101780.81
2018-10-02T13:52:46.527Z,101774.28
2018-10-02T13:55:15.636Z,101786.80
2018-10-02T13:57:44.324Z,101785.97
2018-10-02T14:00:12.952Z,101791.50
2018-10-02T14:02:41.639Z,101794.36
2018-10-02T14:05:10.528Z,101794.10
2018-10-02T14:07:39.035Z,101805.72
2018-10-02T14:10:07.568Z,101793.78
2018-10-02T14:12:36.093Z,101788.72
2018-10-02T14:15:05.379Z,101789.32
2018-10-02T14:17:34.223Z,101792.27
2018-10-02T14:20:06.287Z,101798.25
2018-10-02T14:22:36.253Z,101785.83
2018-10-02T14:25:05.035Z,101796.84
2018-10-02T14:27:33.571Z,101796.86
2018-10-02T14:30:02.074Z,101800.70
2018-10-02T14:32:32.557Z,101806.91
2018-10-02T14:35:01.119Z,101811.15
2018-10-02T14:37:30.110Z,101821.09
2018-10-02T14:39:58.980Z,101816.03
2018-10-02T14:42:27.573Z,101820.07
2018-10-02T14:44:57.200Z,101813.41
2018-10-02T14:47:25.778Z,101829.88
2018-10-02T14:49:54.917Z,101828.64
2018-10-02T14:52:23.703Z,101831.69
2018-10-02T14:54:52.379Z,101838.36
2018-10-02T14:57:23.002Z,101844.55
2018-10-02T14:59:54.717Z,101847.75
2018-10-02T15:02:23.459Z,101857.35
2018-10-02T15:04:52.405Z,101861.31
2018-10-02T15:07:21.565Z,101855.34
2018-10-02T15:09:50.646Z,101860.20
2018-10-02T15:12:19.526Z,101855.16
2018-10-02T15:14:48.442Z,101851.45
2018-10-02T15:17:17.251Z,101860.81
2018-10-02T15:19:45.769Z,101870.48
2018-10-02T15:22:14.475Z,101862.95
2018-10-02T15:24:43.067Z,101856.04
2018-10-02T15:27:11.611Z,101864.02
2018-10-02T15:29:40.346Z,101866.48
2018-10-02T15:32:08.891Z,101868.96
2018-10-02T15:34:37.848Z,101872.06
2018-10-02T15:37:07.427Z,101872.47
2018-10-02T15:39:36.188Z,101871.14
2018-10-02T15:42:05.290Z,101869.27
2018-10-02T15:44:34.021Z,101866.38
2018-10-02T15:47:03.071Z,101871.22
2018-10-02T15:49:31.639Z,101878.45
2018-10-02T15:52:00.929Z,101888.75
2018-10-02T15:54:29.428Z,101887.20
2018-10-02T15:56:58.159Z,101878.64
2018-10-02T15:59:26.667Z,101881.95
2018-10-02T16:01:55.567Z,101882.02
2018-10-02T16:04:24.164Z,101886.99
2018-10-02T16:06:52.950Z,101894.72
2018-10-02T16:09:26.346Z,101892.14
2018-10-02T16:11:55.646Z,101897.98
2018-10-02T16:14:29.194Z,101898.09
2018-10-02T16:16:58.879Z,101893.02
2018-10-02T16:19:27.437Z,101900.52
2018-10-02T16:21:56.326Z,101900.47
2018-10-02T16:24:26.755Z,101902.39
2018-10-02T16:26:55.374Z,101896.19
2018-10-02T16:29:24.558Z,101902.77
2018-10-02T16:31:53.160Z,101907.17
2018-10-02T16:34:21.656Z,101906.44
2018-10-02T16:36:50.573Z,101908.17
2018-10-02T16:39:22.263Z,101911.84
2018-10-02T16:41:50.741Z,101914.80
2018-10-02T16:44:20.288Z,101914.74
2018-10-02T16:46:49.246Z,101920.70
2018-10-02T16:49:17.886Z,101921.36
2018-10-02T16:51:46.671Z,101921.45
2018-10-02T16:54:15.418Z,101926.73
2018-10-02T16:56:44.698Z,101922.69
2018-10-02T16:59:13.235Z,101916.59
2018-10-02T17:01:41.709Z,101919.02
2018-10-02T17:04:10.270Z,101916.62
2018-10-02T17:06:39.599Z,101924.74
2018-10-02T17:09:08.741Z,101931.19
2018-10-02T17:11:37.364Z,101937.38
2018-10-02T17:14:05.852Z,101943.16
2018-10-02T17:16:34.327Z,101954.45
2018-10-02T17:19:02.952Z,101951.31
2018-10-02T17:21:31.446Z,101949.04
2018-10-02T17:24:01.089Z,101954.77
2018-10-02T17:26:29.769Z,101951.13
2018-10-02T18:55:42.747Z,101992.97
2018-10-02T18:58:11.353Z,101996.92
2018-10-02T19:00:40.581Z,102002.75
2018-10-02T19:03:09.178Z,102007.09
2018-10-02T19:05:37.693Z,101994.72
2018-10-02T19:08:07.678Z,101993.83
2018-10-02T19:10:36.234Z,102000.16
2018-10-02T19:13:04.894Z,102003.80
2018-10-02T19:15:39.225Z,102001.77
2018-10-02T19:18:07.793Z,102005.97
2018-10-02T19:20:41.990Z,101995.30
2018-10-02T19:23:10.566Z,101993.28
2018-10-02T19:25:44.487Z,102007.97
2018-10-02T19:28:13.371Z,101997.48
2018-10-02T19:30:47.403Z,101996.14
2018-10-02T19:33:15.934Z,101998.17
2018-10-02T19:35:44.773Z,101997.89
2018-10-02T19:38:20.146Z,102005.47
2018-10-02T19:40:48.924Z,102001.38
2018-10-02T19:43:17.672Z,102009.11
2018-10-02T19:45:51.569Z,102005.16
2018-10-02T19:48:20.208Z,102013.56
2018-10-02T19:50:49.362Z,102012.58
2018-10-02T19:53:17.975Z,102017.78
2018-10-02T19:55:46.569Z,102021.33
2018-10-02T19:58:15.257Z,102028.83
2018-10-02T20:00:43.951Z,102024.68
2018-10-02T20:03:12.439Z,102026.86
2018-10-02T20:05:41.198Z,102025.02
2018-10-02T20:08:09.910Z,102030.17
2018-10-02T20:10:51.015Z,102030.17
2018-10-02T20:13:20.026Z,102028.34
2018-10-02T20:15:48.479Z,102031.31
2018-10-02T20:18:17.009Z,102028.00
2018-10-02T20:20:45.691Z,102026.81
2018-10-02T20:23:14.474Z,102023.16
2018-10-02T20:25:43.144Z,102023.16
2018-10-02T20:28:11.724Z,102027.16
2018-10-02T20:30:40.324Z,102026.51
2018-10-02T20:33:09.498Z,102023.65
2018-10-02T20:35:38.169Z,102027.00
2018-10-02T20:38:07.030Z,102031.16
2018-10-02T20:40:35.547Z,102021.33
2018-10-02T20:43:04.170Z,102030.28
2018-10-02T20:45:32.723Z,102037.10
2018-10-02T20:48:01.746Z,102034.77
2018-10-02T20:50:30.238Z,102033.42
2018-10-02T20:52:58.752Z,102029.57
2018-10-02T20:55:27.247Z,102028.05
2018-10-02T20:57:55.722Z,102038.03
2018-10-02T21:00:24.245Z,102028.14
2018-10-02T21:02:52.984Z,102025.12
2018-10-02T21:05:21.879Z,102027.63
2018-10-02T21:07:50.350Z,102031.30
2018-10-02T21:10:18.940Z,102041.83
2018-10-02T21:12:47.538Z,102038.82
2018-10-02T21:15:16.178Z,102039.34
2018-10-02T21:17:44.697Z,102038.97
2018-10-02T21:20:13.280Z,102046.47
2018-10-02T21:22:41.959Z,102044.75
2018-10-02T21:25:10.534Z,102042.07
2018-10-02T21:27:39.133Z,102043.05
2018-10-02T21:30:07.648Z,102051.56
2018-10-02T21:32:36.154Z,102053.39
2018-10-02T21:35:04.716Z,102060.56
2018-10-02T21:37:33.245Z,102059.42
2018-10-02T21:40:01.981Z,102060.56
2018-10-02T21:42:30.475Z,102062.73
2018-10-02T21:44:59.222Z,102063.91
2018-10-02T21:47:27.802Z,102056.85
2018-10-02T21:49:56.352Z,102051.66
2018-10-02T21:52:24.868Z,102057.68
2018-10-02T21:54:53.347Z,102054.17
2018-10-02T21:57:21.818Z,102051.00
2018-10-02T21:59:50.385Z,102050.66
2018-10-02T22:02:18.906Z,102050.50
2018-10-02T22:04:47.372Z,102052.48
2018-10-02T22:07:15.865Z,102049.31
2018-10-02T22:09:44.389Z,102048.78
2018-10-02T22:12:12.895Z,102052.34
2018-10-02T22:14:41.425Z,102055.67
2018-10-02T22:17:10.824Z,102057.19
2018-10-02T22:19:39.559Z,102058.38
2018-10-02T22:22:08.053Z,102056.41
2018-10-02T22:24:36.502Z,102062.23
2018-10-02T22:27:05.081Z,102048.89
2018-10-02T22:29:34.501Z,102040.69
2018-10-02T22:32:03.031Z,102043.05
2018-10-02T22:34:31.503Z,102048.55
2018-10-02T22:37:00.127Z,102050.63
2018-10-02T22:39:29.242Z,102050.97
2018-10-02T22:41:57.777Z,102056.31
2018-10-02T22:44:26.227Z,102054.98
2018-10-02T22:46:54.715Z,102052.31
2018-10-02T22:49:23.174Z,102053.00
2018-10-02T22:51:51.698Z,102050.67
2018-10-02T22:54:20.147Z,102053.69
2018-10-02T22:56:48.689Z,102057.88
2018-10-02T22:59:17.265Z,102062.88
2018-10-02T23:01:45.686Z,102067.05
2018-10-02T23:04:14.169Z,102065.06
2018-10-02T23:06:43.129Z,102059.23
2018-10-02T23:09:12.802Z,102064.72
2018-10-02T23:11:41.398Z,102066.04
2018-10-02T23:14:09.966Z,102065.85
2018-10-02T23:16:38.395Z,102069.66
2018-10-02T23:19:07.183Z,102076.67
2018-10-02T23:21:35.641Z,102078.70
2018-10-02T23:24:04.172Z,102077.52
2018-10-02T23:26:33.704Z,102076.86
2018-10-02T23:29:02.138Z,102083.84
2018-10-02T23:31:30.605Z,102081.67
2018-10-02T23:33:59.191Z,102084.69
2018-10-02T23:36:27.705Z,102076.67
2018-10-02T23:38:56.202Z,102078.34
2018-10-02T23:41:24.706Z,102082.02
2018-10-02T23:43:53.328Z,102082.02
2018-10-02T23:46:21.812Z,102089.52
2018-10-02T23:48:50.276Z,102088.69
2018-10-02T23:51:18.990Z,102093.67
2018-10-02T23:53:47.417Z,102109.50
2018-10-02T23:56:15.822Z,102108.02
2018-10-02T23:58:44.629Z,102098.14
